createdAt,value
2023-03-12T00:02:52.746Z,1.90
2023-03-12T00:07:44.616Z,2.00
2023-03-12T00:12:36.399Z,2.00
2023-03-12T00:17:29.362Z,2.00
2023-03-12T00:22:25.854Z,1.65
2023-03-12T00:27:18.180Z,1.67
2023-03-12T00:32:10.158Z,1.92
2023-03-12T00:37:02.056Z,2.00
2023-03-12T00:41:53.895Z,2.60
2023-03-12T00:46:45.952Z,2.00
2023-03-12T00:51:38.685Z,2.40
2023-03-12T00:56:31.003Z,1.90
2023-03-12T01:01:23.019Z,1.67
2023-03-12T01:06:14.932Z,2.17
2023-03-12T01:11:07.214Z,2.40
2023-03-12T01:15:59.101Z,2.00
2023-03-12T01:20:51.098Z,2.00
2023-03-12T01:25:43.558Z,1.93
2023-03-12T01:30:35.442Z,1.48
2023-03-12T01:35:27.588Z,1.77
2023-03-12T01:40:21.287Z,1.52
2023-03-12T01:45:51.031Z,1.80
2023-03-12T01:50:42.962Z,1.77
2023-03-12T01:55:35.107Z,2.03
2023-03-12T02:00:27.789Z,2.25
2023-03-12T02:05:32.636Z,2.20
2023-03-12T02:10:25.546Z,1.80
2023-03-12T02:15:18.292Z,1.70
2023-03-12T02:20:20.868Z,1.67
2023-03-12T02:25:32.077Z,1.40
2023-03-12T02:30:26.065Z,1.83
2023-03-12T02:35:18.258Z,2.03
2023-03-12T02:40:16.110Z,1.85
2023-03-12T02:45:08.522Z,1.95
2023-03-12T02:50:00.444Z,1.83
2023-03-12T02:54:52.409Z,1.60
2023-03-12T02:59:44.361Z,1.87
2023-03-12T03:04:36.983Z,1.92
2023-03-12T03:09:28.827Z,2.03
2023-03-12T03:14:20.978Z,1.83
2023-03-12T03:19:15.641Z,1.90
2023-03-12T03:24:07.675Z,1.63
2023-03-12T03:28:59.586Z,1.60
2023-03-12T03:33:51.593Z,1.73
2023-03-12T03:38:47.099Z,1.30
2023-03-12T03:43:39.015Z,1.92
2023-03-12T03:48:31.848Z,1.42
2023-03-12T03:53:23.898Z,1.33
2023-03-12T03:58:16.536Z,1.40
2023-03-12T04:03:08.959Z,1.50
2023-03-12T04:08:03.230Z,1.73
2023-03-12T04:12:57.862Z,1.52
2023-03-12T04:17:49.939Z,1.90
2023-03-12T04:22:42.690Z,1.70
2023-03-12T04:27:35.977Z,1.48
2023-03-12T04:32:27.896Z,1.83
2023-03-12T04:37:19.941Z,1.65
2023-03-12T04:42:12.041Z,1.50
2023-03-12T04:47:05.904Z,1.73
2023-03-12T04:51:58.166Z,1.58
2023-03-12T04:56:50.937Z,1.70
2023-03-12T05:01:45.606Z,1.70
2023-03-12T05:06:43.917Z,2.35
2023-03-12T05:11:39.159Z,1.52
2023-03-12T05:16:32.318Z,1.52
2023-03-12T05:21:24.612Z,1.70
2023-03-12T05:26:25.399Z,1.80
2023-03-12T05:31:24.111Z,1.83
2023-03-12T05:36:16.302Z,1.70
2023-03-12T05:41:19.143Z,1.77
2023-03-12T05:46:11.701Z,1.80
2023-03-12T05:51:03.932Z,1.55
2023-03-12T05:56:06.500Z,1.50
2023-03-12T06:00:58.503Z,1.58
2023-03-12T06:05:52.395Z,1.30
2023-03-12T06:10:44.382Z,1.75
2023-03-12T06:15:36.325Z,1.83
2023-03-12T06:20:31.315Z,1.67
2023-03-12T06:25:23.432Z,1.20
2023-03-12T06:30:18.038Z,1.58
2023-03-12T06:35:10.064Z,1.73
2023-03-12T06:40:02.168Z,1.55
2023-03-12T06:44:53.976Z,1.52
2023-03-12T06:49:45.866Z,1.73
2023-03-12T06:54:38.340Z,1.57
2023-03-12T06:59:30.268Z,1.90
2023-03-12T07:04:22.160Z,1.80
2023-03-12T07:09:13.953Z,2.13
2023-03-12T07:14:05.822Z,1.50
2023-03-12T07:18:57.672Z,1.40
2023-03-12T07:23:50.668Z,1.40
2023-03-12T07:28:42.500Z,1.92
2023-03-12T07:33:34.993Z,1.57
2023-03-12T07:43:21.548Z,1.55
2023-03-12T07:48:15.295Z,1.65
2023-03-12T07:53:07.337Z,1.77
2023-03-12T07:57:59.236Z,1.60
2023-03-12T08:02:52.427Z,1.70
2023-03-12T08:07:45.316Z,1.58
2023-03-12T08:12:37.793Z,1.50
2023-03-12T08:17:29.657Z,1.70
2023-03-12T08:22:21.551Z,1.50
2023-03-12T08:27:13.692Z,1.53
2023-03-12T08:32:05.915Z,1.80
2023-03-12T08:36:57.892Z,1.40
2023-03-12T08:41:50.098Z,1.75
2023-03-12T08:46:41.862Z,1.70
2023-03-12T08:51:33.741Z,1.93
2023-03-12T08:56:25.553Z,1.90
2023-03-12T09:01:18.524Z,1.90
2023-03-12T09:06:15.142Z,2.13
2023-03-12T09:11:09.077Z,1.80
2023-03-12T09:16:03.045Z,1.60
2023-03-12T09:20:55.385Z,1.98
2023-03-12T09:25:47.548Z,1.55
2023-03-12T09:30:39.485Z,1.70
2023-03-12T09:35:34.390Z,2.27
2023-03-12T09:40:31.177Z,1.73
2023-03-12T09:45:25.948Z,1.70
2023-03-12T09:50:24.222Z,1.92
2023-03-12T09:55:19.524Z,1.90
2023-03-12T10:00:23.424Z,2.05
2023-03-12T10:05:32.948Z,1.88
2023-03-12T10:10:46.970Z,1.77
2023-03-12T10:15:55.836Z,2.10
2023-03-12T10:21:12.405Z,1.70
2023-03-12T10:26:18.733Z,2.00
2023-03-12T10:31:44.401Z,1.90
2023-03-12T10:36:40.696Z,1.80
2023-03-12T10:41:34.904Z,2.03
2023-03-12T10:46:56.728Z,1.65
2023-03-12T10:52:17.351Z,2.28
2023-03-12T10:57:09.543Z,2.00
2023-03-12T11:02:02.073Z,1.80
2023-03-12T11:12:25.155Z,1.80
2023-03-12T11:17:28.906Z,1.60
2023-03-12T11:22:33.356Z,1.80
2023-03-12T11:27:44.674Z,2.10
2023-03-12T11:32:40.723Z,9.60
2023-03-12T11:44:06.860Z,10.18
2023-03-12T11:48:58.845Z,8.57
2023-03-12T11:54:01.713Z,8.27
2023-03-12T11:59:13.202Z,8.52
2023-03-12T12:04:40.822Z,17.73
2023-03-12T12:09:45.448Z,116.75
2023-03-12T12:15:01.181Z,145.55
2023-03-12T12:20:15.638Z,125.65
2023-03-12T12:25:28.767Z,112.30
2023-03-12T12:30:35.898Z,116.07
2023-03-12T12:35:34.925Z,172.60
2023-03-12T12:40:37.720Z,258.80
2023-03-12T12:45:31.086Z,223.80
2023-03-12T12:50:27.216Z,156.20
2023-03-12T12:55:35.521Z,155.88
2023-03-12T13:00:47.439Z,165.65
2023-03-12T13:06:00.707Z,178.20
2023-03-12T13:11:17.574Z,245.80
2023-03-12T13:16:27.428Z,252.63
2023-03-12T13:21:36.223Z,244.02
2023-03-12T13:26:32.361Z,204.75
2023-03-12T13:31:24.320Z,204.32
2023-03-12T13:36:16.321Z,193.68
2023-03-12T13:41:09.752Z,186.82
2023-03-12T13:46:22.397Z,176.90
2023-03-12T13:56:15.676Z,301.45
2023-03-12T14:01:14.876Z,252.45
2023-03-12T14:06:34.616Z,221.88
2023-03-12T14:12:15.040Z,228.30
2023-03-12T14:17:24.313Z,208.30
2023-03-12T14:33:16.232Z,120.57
2023-03-12T14:38:39.314Z,109.10
2023-03-12T14:43:54.269Z,109.50
2023-03-12T14:48:51.692Z,86.28
2023-03-12T14:53:46.783Z,79.40
2023-03-12T14:58:49.280Z,74.97
2023-03-12T15:03:45.197Z,73.38
2023-03-12T15:08:40.087Z,81.68
2023-03-12T15:13:36.403Z,68.22
2023-03-12T15:18:55.804Z,68.93
2023-03-12T15:23:51.008Z,67.45
2023-03-12T15:28:44.026Z,97.88
2023-03-12T15:33:36.491Z,63.28
2023-03-12T15:38:28.583Z,19.65
2023-03-12T15:43:24.026Z,31.60
2023-03-12T15:48:26.982Z,17.52
2023-03-12T15:53:18.773Z,56.20
2023-03-12T15:58:29.961Z,52.67
2023-03-12T16:03:22.211Z,25.48
2023-03-12T16:08:55.689Z,42.30
2023-03-12T16:13:49.195Z,36.75
2023-03-12T16:18:43.666Z,24.40
2023-03-12T16:23:36.926Z,17.63
2023-03-12T16:28:28.982Z,24.15
2023-03-12T16:33:23.893Z,25.33
2023-03-12T16:38:23.738Z,24.45
2023-03-12T16:43:28.349Z,25.13
2023-03-12T16:48:27.294Z,24.38
2023-03-12T16:53:22.804Z,24.02
2023-03-12T16:58:16.981Z,23.20
2023-03-12T17:03:18.004Z,24.73
2023-03-12T17:08:19.272Z,26.67
2023-03-12T17:13:22.594Z,26.52
2023-03-12T17:18:14.587Z,26.48
2023-03-12T17:23:06.567Z,26.20
2023-03-12T17:29:30.457Z,26.95
2023-03-12T17:44:40.537Z,27.48
2023-03-12T17:49:32.393Z,30.40
2023-03-12T17:54:24.312Z,29.90
2023-03-12T17:59:18.209Z,29.77
2023-03-12T18:04:10.094Z,30.08
2023-03-12T18:09:31.431Z,29.83
2023-03-12T18:14:23.538Z,29.73
2023-03-12T18:19:16.178Z,30.63
2023-03-12T18:24:14.079Z,31.42
2023-03-12T18:29:09.643Z,29.75
2023-03-12T18:34:01.532Z,29.40
2023-03-12T18:38:53.361Z,29.73
2023-03-12T18:43:45.185Z,28.83
2023-03-12T18:48:42.293Z,30.00
2023-03-12T18:53:35.597Z,29.52
2023-03-12T18:58:28.868Z,29.23
2023-03-12T19:03:22.579Z,30.05
2023-03-12T19:08:14.897Z,29.77
2023-03-12T19:13:07.070Z,27.85
2023-03-12T19:17:58.858Z,27.92
2023-03-12T19:22:50.801Z,27.30
2023-03-12T19:27:42.755Z,28.07
2023-03-12T19:32:43.195Z,27.43
2023-03-12T19:37:35.838Z,28.02
2023-03-12T19:42:27.691Z,28.57
2023-03-12T19:47:21.998Z,26.57
2023-03-12T19:52:14.126Z,26.60
2023-03-12T19:57:06.621Z,27.85
2023-03-12T20:02:01.685Z,25.85
2023-03-12T20:06:58.674Z,27.13
2023-03-12T20:11:50.488Z,27.38
2023-03-12T20:16:43.447Z,25.97
2023-03-12T20:21:35.302Z,25.23
2023-03-12T20:26:27.219Z,26.77
2023-03-12T20:31:19.215Z,25.87
2023-03-12T20:36:13.092Z,25.45
2023-03-12T20:41:05.685Z,26.88
2023-03-12T20:45:57.521Z,25.55
2023-03-12T20:50:54.358Z,25.20
2023-03-12T20:55:46.188Z,24.60
2023-03-12T21:00:39.153Z,23.13
2023-03-12T21:05:32.144Z,23.33
2023-03-12T21:10:24.474Z,21.77
2023-03-12T21:15:16.361Z,23.30
2023-03-12T21:20:17.331Z,23.67
2023-03-12T21:25:10.294Z,21.73
2023-03-12T21:30:02.232Z,23.25
2023-03-12T21:34:54.034Z,22.77
2023-03-12T21:39:50.138Z,20.73
2023-03-12T21:44:43.360Z,21.50
2023-03-12T21:49:35.929Z,20.10
2023-03-12T21:54:34.631Z,21.08
2023-03-12T21:59:26.601Z,20.77
2023-03-12T22:04:18.493Z,20.10
2023-03-12T22:09:10.523Z,19.10
2023-03-12T22:14:02.647Z,20.02
2023-03-12T22:18:57.163Z,20.25
2023-03-12T22:23:53.624Z,20.33
2023-03-12T22:29:02.025Z,19.50
2023-03-12T22:33:53.993Z,18.25
2023-03-12T22:38:47.797Z,17.27
2023-03-12T22:43:39.698Z,18.00
2023-03-12T22:48:31.883Z,17.40
2023-03-12T22:53:24.934Z,17.10
2023-03-12T22:58:16.837Z,17.60
2023-03-12T23:03:08.644Z,16.60
2023-03-12T23:08:00.513Z,18.17
2023-03-12T23:12:52.415Z,17.33
2023-03-12T23:17:44.265Z,15.40
2023-03-12T23:22:36.207Z,16.83
2023-03-12T23:27:28.387Z,16.00
2023-03-12T23:32:20.290Z,15.52
2023-03-12T23:37:12.198Z,15.23
2023-03-12T23:42:07.574Z,15.93
2023-03-12T23:46:59.341Z,15.70
2023-03-12T23:51:51.438Z,15.17
2023-03-12T23:56:43.487Z,14.68
